sensor_id;sensor_type;location;lat;lon;timestamp;P1;durP1;ratioP1;P2;durP2;ratioP2
44722;SDS011;30451;48.638;10.624;2023-05-07T00:02:02;0.68;;;0.50;;
44722;SDS011;30451;48.638;10.624;2023-05-07T00:04:28;0.50;;;0.50;;
44722;SDS011;30451;48.638;10.624;2023-05-07T00:07:00;0.63;;;0.50;;
44722;SDS011;30451;48.638;10.624;2023-05-07T00:09:26;0.55;;;0.55;;
44722;SDS011;30451;48.638;10.624;2023-05-07T00:11:52;1.00;;;0.60;;
44722;SDS011;30451;48.638;10.624;2023-05-07T00:14:17;1.50;;;0.50;;
44722;SDS011;30451;48.638;10.624;2023-05-07T00:16:43;1.30;;;0.60;;
44722;SDS011;30451;48.638;10.624;2023-05-07T00:19:09;0.60;;;0.55;;
44722;SDS011;30451;48.638;10.624;2023-05-07T00:21:34;0.90;;;0.60;;
44722;SDS011;30451;48.638;10.624;2023-05-07T00:24:00;0.60;;;0.60;;
44722;SDS011;30451;48.638;10.624;2023-05-07T00:26:26;0.90;;;0.60;;
44722;SDS011;30451;48.638;10.624;2023-05-07T00:28:51;0.52;;;0.50;;
44722;SDS011;30451;48.638;10.624;2023-05-07T00:31:17;1.48;;;0.60;;
44722;SDS011;30451;48.638;10.624;2023-05-07T00:33:42;0.50;;;0.50;;
44722;SDS011;30451;48.638;10.624;2023-05-07T00:36:08;0.65;;;0.50;;
44722;SDS011;30451;48.638;10.624;2023-05-07T00:38:34;0.63;;;0.63;;
44722;SDS011;30451;48.638;10.624;2023-05-07T00:40:59;0.60;;;0.60;;
44722;SDS011;30451;48.638;10.624;2023-05-07T00:43:25;0.80;;;0.60;;
44722;SDS011;30451;48.638;10.624;2023-05-07T00:45:52;0.47;;;0.40;;
44722;SDS011;30451;48.638;10.624;2023-05-07T00:48:18;0.60;;;0.50;;
44722;SDS011;30451;48.638;10.624;2023-05-07T00:50:44;0.50;;;0.50;;
44722;SDS011;30451;48.638;10.624;2023-05-07T00:53:10;0.43;;;0.38;;
44722;SDS011;30451;48.638;10.624;2023-05-07T00:55:36;0.68;;;0.50;;
44722;SDS011;30451;48.638;10.624;2023-05-07T00:58:03;0.55;;;0.40;;
44722;SDS011;30451;48.638;10.624;2023-05-07T01:00:29;1.75;;;0.65;;
44722;SDS011;30451;48.638;10.624;2023-05-07T01:02:54;0.50;;;0.50;;
44722;SDS011;30451;48.638;10.624;2023-05-07T01:05:20;0.70;;;0.70;;
44722;SDS011;30451;48.638;10.624;2023-05-07T01:07:48;0.70;;;0.50;;
44722;SDS011;30451;48.638;10.624;2023-05-07T01:10:15;0.50;;;0.40;;
44722;SDS011;30451;48.638;10.624;2023-05-07T01:12:41;0.80;;;0.50;;
44722;SDS011;30451;48.638;10.624;2023-05-07T01:15:08;0.60;;;0.52;;
44722;SDS011;30451;48.638;10.624;2023-05-07T01:17:35;0.50;;;0.40;;
44722;SDS011;30451;48.638;10.624;2023-05-07T01:20:01;0.77;;;0.50;;
44722;SDS011;30451;48.638;10.624;2023-05-07T01:22:30;0.40;;;0.40;;
44722;SDS011;30451;48.638;10.624;2023-05-07T01:24:57;0.50;;;0.50;;
44722;SDS011;30451;48.638;10.624;2023-05-07T01:27:24;0.50;;;0.50;;
44722;SDS011;30451;48.638;10.624;2023-05-07T01:29:50;0.50;;;0.50;;
44722;SDS011;30451;48.638;10.624;2023-05-07T01:32:15;0.60;;;0.50;;
44722;SDS011;30451;48.638;10.624;2023-05-07T01:34:50;0.50;;;0.50;;
44722;SDS011;30451;48.638;10.624;2023-05-07T01:37:17;0.40;;;0.40;;
44722;SDS011;30451;48.638;10.624;2023-05-07T01:39:43;0.70;;;0.40;;
44722;SDS011;30451;48.638;10.624;2023-05-07T01:42:09;0.40;;;0.40;;
44722;SDS011;30451;48.638;10.624;2023-05-07T01:44:35;0.98;;;0.50;;
44722;SDS011;30451;48.638;10.624;2023-05-07T01:47:01;0.40;;;0.40;;
44722;SDS011;30451;48.638;10.624;2023-05-07T01:49:27;0.52;;;0.52;;
44722;SDS011;30451;48.638;10.624;2023-05-07T01:51:53;0.57;;;0.50;;
44722;SDS011;30451;48.638;10.624;2023-05-07T01:54:19;0.70;;;0.40;;
44722;SDS011;30451;48.638;10.624;2023-05-07T01:56:45;0.45;;;0.45;;
44722;SDS011;30451;48.638;10.624;2023-05-07T01:59:13;0.50;;;0.50;;
44722;SDS011;30451;48.638;10.624;2023-05-07T02:01:38;0.40;;;0.40;;
44722;SDS011;30451;48.638;10.624;2023-05-07T02:04:04;0.40;;;0.40;;
44722;SDS011;30451;48.638;10.624;2023-05-07T02:06:29;0.52;;;0.52;;
44722;SDS011;30451;48.638;10.624;2023-05-07T02:08:56;0.40;;;0.40;;
44722;SDS011;30451;48.638;10.624;2023-05-07T02:11:21;0.50;;;0.50;;
44722;SDS011;30451;48.638;10.624;2023-05-07T02:13:47;0.57;;;0.40;;
44722;SDS011;30451;48.638;10.624;2023-05-07T02:16:12;0.52;;;0.50;;
44722;SDS011;30451;48.638;10.624;2023-05-07T02:18:39;0.50;;;0.50;;
44722;SDS011;30451;48.638;10.624;2023-05-07T02:21:04;0.40;;;0.40;;
44722;SDS011;30451;48.638;10.624;2023-05-07T02:23:30;0.50;;;0.50;;
44722;SDS011;30451;48.638;10.624;2023-05-07T02:25:56;0.70;;;0.40;;
44722;SDS011;30451;48.638;10.624;2023-05-07T02:28:21;0.57;;;0.50;;
44722;SDS011;30451;48.638;10.624;2023-05-07T02:30:47;0.40;;;0.40;;
44722;SDS011;30451;48.638;10.624;2023-05-07T02:33:12;0.60;;;0.40;;
44722;SDS011;30451;48.638;10.624;2023-05-07T02:35:38;0.40;;;0.40;;
44722;SDS011;30451;48.638;10.624;2023-05-07T02:38:04;0.50;;;0.40;;
44722;SDS011;30451;48.638;10.624;2023-05-07T02:40:30;0.88;;;0.50;;
44722;SDS011;30451;48.638;10.624;2023-05-07T02:42:58;0.40;;;0.40;;
44722;SDS011;30451;48.638;10.624;2023-05-07T02:45:24;0.57;;;0.50;;
44722;SDS011;30451;48.638;10.624;2023-05-07T02:47:50;0.55;;;0.32;;
44722;SDS011;30451;48.638;10.624;2023-05-07T02:50:16;0.30;;;0.30;;
44722;SDS011;30451;48.638;10.624;2023-05-07T02:52:41;0.82;;;0.50;;
44722;SDS011;30451;48.638;10.624;2023-05-07T02:55:07;0.30;;;0.30;;
44722;SDS011;30451;48.638;10.624;2023-05-07T02:57:33;0.82;;;0.47;;
44722;SDS011;30451;48.638;10.624;2023-05-07T02:59:59;0.63;;;0.60;;
44722;SDS011;30451;48.638;10.624;2023-05-07T03:02:25;0.50;;;0.50;;
44722;SDS011;30451;48.638;10.624;2023-05-07T03:04:50;0.52;;;0.45;;
44722;SDS011;30451;48.638;10.624;2023-05-07T03:07:16;0.50;;;0.47;;
44722;SDS011;30451;48.638;10.624;2023-05-07T03:09:42;0.40;;;0.40;;
44722;SDS011;30451;48.638;10.624;2023-05-07T03:12:07;0.50;;;0.50;;
44722;SDS011;30451;48.638;10.624;2023-05-07T03:14:33;0.40;;;0.40;;
44722;SDS011;30451;48.638;10.624;2023-05-07T03:16:58;0.40;;;0.40;;
44722;SDS011;30451;48.638;10.624;2023-05-07T03:19:24;0.63;;;0.60;;
44722;SDS011;30451;48.638;10.624;2023-05-07T03:21:50;0.40;;;0.40;;
44722;SDS011;30451;48.638;10.624;2023-05-07T03:24:15;0.73;;;0.50;;
44722;SDS011;30451;48.638;10.624;2023-05-07T03:26:41;0.38;;;0.38;;
44722;SDS011;30451;48.638;10.624;2023-05-07T03:29:06;0.80;;;0.60;;
44722;SDS011;30451;48.638;10.624;2023-05-07T03:31:32;0.40;;;0.40;;
44722;SDS011;30451;48.638;10.624;2023-05-07T03:33:58;0.80;;;0.50;;
44722;SDS011;30451;48.638;10.624;2023-05-07T03:36:23;0.68;;;0.50;;
44722;SDS011;30451;48.638;10.624;2023-05-07T03:38:51;0.40;;;0.40;;
44722;SDS011;30451;48.638;10.624;2023-05-07T03:41:17;0.40;;;0.40;;
44722;SDS011;30451;48.638;10.624;2023-05-07T03:43:42;0.73;;;0.60;;
44722;SDS011;30451;48.638;10.624;2023-05-07T03:46:08;0.40;;;0.40;;
44722;SDS011;30451;48.638;10.624;2023-05-07T03:48:33;0.50;;;0.50;;
44722;SDS011;30451;48.638;10.624;2023-05-07T03:50:59;0.47;;;0.40;;
44722;SDS011;30451;48.638;10.624;2023-05-07T03:53:25;0.55;;;0.45;;
44722;SDS011;30451;48.638;10.624;2023-05-07T03:55:50;0.70;;;0.40;;
44722;SDS011;30451;48.638;10.624;2023-05-07T03:58:16;1.00;;;0.57;;
44722;SDS011;30451;48.638;10.624;2023-05-07T04:00:42;1.25;;;0.50;;
44722;SDS011;30451;48.638;10.624;2023-05-07T04:03:08;0.40;;;0.40;;
44722;SDS011;30451;48.638;10.624;2023-05-07T04:05:33;0.50;;;0.50;;
44722;SDS011;30451;48.638;10.624;2023-05-07T04:07:59;0.60;;;0.50;;
44722;SDS011;30451;48.638;10.624;2023-05-07T04:10:25;0.57;;;0.50;;
44722;SDS011;30451;48.638;10.624;2023-05-07T04:12:51;0.30;;;0.30;;
44722;SDS011;30451;48.638;10.624;2023-05-07T04:15:17;0.40;;;0.40;;
44722;SDS011;30451;48.638;10.624;2023-05-07T04:17:42;0.63;;;0.40;;
44722;SDS011;30451;48.638;10.624;2023-05-07T04:20:08;0.40;;;0.40;;
44722;SDS011;30451;48.638;10.624;2023-05-07T04:22:35;0.50;;;0.50;;
44722;SDS011;30451;48.638;10.624;2023-05-07T04:25:01;0.40;;;0.40;;
44722;SDS011;30451;48.638;10.624;2023-05-07T04:27:28;0.47;;;0.45;;
44722;SDS011;30451;48.638;10.624;2023-05-07T04:29:53;0.47;;;0.40;;
44722;SDS011;30451;48.638;10.624;2023-05-07T04:32:21;0.50;;;0.50;;
44722;SDS011;30451;48.638;10.624;2023-05-07T04:34:47;0.50;;;0.50;;
44722;SDS011;30451;48.638;10.624;2023-05-07T04:37:12;0.68;;;0.50;;
44722;SDS011;30451;48.638;10.624;2023-05-07T04:39:38;0.70;;;0.60;;
44722;SDS011;30451;48.638;10.624;2023-05-07T04:42:04;1.13;;;0.60;;
44722;SDS011;30451;48.638;10.624;2023-05-07T04:44:32;0.60;;;0.50;;
44722;SDS011;30451;48.638;10.624;2023-05-07T04:46:59;0.52;;;0.50;;
44722;SDS011;30451;48.638;10.624;2023-05-07T04:49:24;0.40;;;0.40;;
44722;SDS011;30451;48.638;10.624;2023-05-07T04:51:50;0.50;;;0.50;;
44722;SDS011;30451;48.638;10.624;2023-05-07T04:54:16;0.40;;;0.40;;
44722;SDS011;30451;48.638;10.624;2023-05-07T04:56:41;0.50;;;0.50;;
44722;SDS011;30451;48.638;10.624;2023-05-07T04:59:07;0.43;;;0.40;;
44722;SDS011;30451;48.638;10.624;2023-05-07T05:01:32;0.40;;;0.40;;
44722;SDS011;30451;48.638;10.624;2023-05-07T05:03:58;0.55;;;0.40;;
44722;SDS011;30451;48.638;10.624;2023-05-07T05:06:25;0.50;;;0.50;;
44722;SDS011;30451;48.638;10.624;2023-05-07T05:08:51;0.60;;;0.52;;
44722;SDS011;30451;48.638;10.624;2023-05-07T05:11:16;0.50;;;0.50;;
44722;SDS011;30451;48.638;10.624;2023-05-07T05:13:42;0.50;;;0.50;;
44722;SDS011;30451;48.638;10.624;2023-05-07T05:16:08;0.70;;;0.50;;
44722;SDS011;30451;48.638;10.624;2023-05-07T05:18:34;0.40;;;0.40;;
44722;SDS011;30451;48.638;10.624;2023-05-07T05:21:00;0.60;;;0.52;;
44722;SDS011;30451;48.638;10.624;2023-05-07T05:23:27;0.50;;;0.50;;
44722;SDS011;30451;48.638;10.624;2023-05-07T05:25:56;0.50;;;0.50;;
44722;SDS011;30451;48.638;10.624;2023-05-07T05:28:24;0.68;;;0.60;;
44722;SDS011;30451;48.638;10.624;2023-05-07T05:30:50;0.70;;;0.60;;
44722;SDS011;30451;48.638;10.624;2023-05-07T05:33:16;0.70;;;0.52;;
44722;SDS011;30451;48.638;10.624;2023-05-07T05:35:41;0.47;;;0.47;;
44722;SDS011;30451;48.638;10.624;2023-05-07T05:38:07;0.80;;;0.43;;
44722;SDS011;30451;48.638;10.624;2023-05-07T05:40:33;0.47;;;0.47;;
44722;SDS011;30451;48.638;10.624;2023-05-07T05:42:59;0.55;;;0.50;;
44722;SDS011;30451;48.638;10.624;2023-05-07T05:45:25;0.55;;;0.50;;
44722;SDS011;30451;48.638;10.624;2023-05-07T05:47:50;0.50;;;0.50;;
44722;SDS011;30451;48.638;10.624;2023-05-07T05:50:16;0.75;;;0.50;;
44722;SDS011;30451;48.638;10.624;2023-05-07T05:52:42;0.40;;;0.40;;
44722;SDS011;30451;48.638;10.624;2023-05-07T05:55:08;0.50;;;0.50;;
44722;SDS011;30451;48.638;10.624;2023-05-07T05:57:33;0.65;;;0.50;;
44722;SDS011;30451;48.638;10.624;2023-05-07T06:00:00;0.50;;;0.50;;
44722;SDS011;30451;48.638;10.624;2023-05-07T06:02:26;0.43;;;0.30;;
44722;SDS011;30451;48.638;10.624;2023-05-07T06:04:52;0.73;;;0.50;;
44722;SDS011;30451;48.638;10.624;2023-05-07T06:07:17;0.57;;;0.43;;
44722;SDS011;30451;48.638;10.624;2023-05-07T06:09:43;0.40;;;0.40;;
44722;SDS011;30451;48.638;10.624;2023-05-07T06:12:09;0.63;;;0.45;;
44722;SDS011;30451;48.638;10.624;2023-05-07T06:14:34;0.63;;;0.43;;
44722;SDS011;30451;48.638;10.624;2023-05-07T06:17:00;0.60;;;0.60;;
44722;SDS011;30451;48.638;10.624;2023-05-07T06:19:25;0.45;;;0.40;;
44722;SDS011;30451;48.638;10.624;2023-05-07T06:21:53;0.52;;;0.50;;
44722;SDS011;30451;48.638;10.624;2023-05-07T06:24:18;0.47;;;0.40;;
44722;SDS011;30451;48.638;10.624;2023-05-07T06:26:44;0.40;;;0.40;;
44722;SDS011;30451;48.638;10.624;2023-05-07T06:29:10;0.60;;;0.40;;
44722;SDS011;30451;48.638;10.624;2023-05-07T06:31:35;0.40;;;0.40;;
44722;SDS011;30451;48.638;10.624;2023-05-07T06:34:01;0.50;;;0.50;;
44722;SDS011;30451;48.638;10.624;2023-05-07T06:36:27;0.57;;;0.40;;
44722;SDS011;30451;48.638;10.624;2023-05-07T06:38:53;1.13;;;0.70;;
44722;SDS011;30451;48.638;10.624;2023-05-07T06:41:18;0.57;;;0.50;;
44722;SDS011;30451;48.638;10.624;2023-05-07T06:43:45;0.55;;;0.45;;
44722;SDS011;30451;48.638;10.624;2023-05-07T06:46:11;0.50;;;0.50;;
44722;SDS011;30451;48.638;10.624;2023-05-07T06:48:36;0.50;;;0.50;;
44722;SDS011;30451;48.638;10.624;2023-05-07T06:51:02;0.95;;;0.60;;
44722;SDS011;30451;48.638;10.624;2023-05-07T06:53:27;1.00;;;0.60;;
44722;SDS011;30451;48.638;10.624;2023-05-07T06:55:54;0.50;;;0.50;;
44722;SDS011;30451;48.638;10.624;2023-05-07T06:58:20;0.43;;;0.43;;
44722;SDS011;30451;48.638;10.624;2023-05-07T07:00:45;0.90;;;0.60;;
44722;SDS011;30451;48.638;10.624;2023-05-07T07:03:11;0.52;;;0.50;;
44722;SDS011;30451;48.638;10.624;2023-05-07T07:05:36;0.65;;;0.60;;
44722;SDS011;30451;48.638;10.624;2023-05-07T07:08:02;0.98;;;0.60;;
44722;SDS011;30451;48.638;10.624;2023-05-07T07:10:28;0.82;;;0.57;;
44722;SDS011;30451;48.638;10.624;2023-05-07T07:12:53;0.57;;;0.50;;
44722;SDS011;30451;48.638;10.624;2023-05-07T07:15:19;1.10;;;0.68;;
44722;SDS011;30451;48.638;10.624;2023-05-07T07:17:45;0.60;;;0.60;;
44722;SDS011;30451;48.638;10.624;2023-05-07T07:20:11;0.60;;;0.50;;
44722;SDS011;30451;48.638;10.624;2023-05-07T07:22:37;0.60;;;0.57;;
44722;SDS011;30451;48.638;10.624;2023-05-07T07:25:02;0.88;;;0.60;;
44722;SDS011;30451;48.638;10.624;2023-05-07T07:27:28;1.08;;;0.63;;
44722;SDS011;30451;48.638;10.624;2023-05-07T07:29:54;0.57;;;0.50;;
44722;SDS011;30451;48.638;10.624;2023-05-07T07:32:19;0.77;;;0.60;;
44722;SDS011;30451;48.638;10.624;2023-05-07T07:34:45;1.67;;;0.75;;
44722;SDS011;30451;48.638;10.624;2023-05-07T07:37:11;0.60;;;0.60;;
44722;SDS011;30451;48.638;10.624;2023-05-07T07:39:36;1.05;;;0.68;;
44722;SDS011;30451;48.638;10.624;2023-05-07T07:42:06;1.45;;;0.80;;
44722;SDS011;30451;48.638;10.624;2023-05-07T07:44:31;1.17;;;0.68;;
44722;SDS011;30451;48.638;10.624;2023-05-07T07:46:57;0.77;;;0.60;;
44722;SDS011;30451;48.638;10.624;2023-05-07T07:49:22;2.67;;;1.08;;
44722;SDS011;30451;48.638;10.624;2023-05-07T07:51:48;1.15;;;0.80;;
44722;SDS011;30451;48.638;10.624;2023-05-07T07:54:14;0.88;;;0.70;;
44722;SDS011;30451;48.638;10.624;2023-05-07T07:56:39;0.80;;;0.70;;
44722;SDS011;30451;48.638;10.624;2023-05-07T07:59:05;0.98;;;0.88;;
44722;SDS011;30451;48.638;10.624;2023-05-07T08:01:30;1.33;;;0.70;;
44722;SDS011;30451;48.638;10.624;2023-05-07T08:03:56;0.90;;;0.70;;
44722;SDS011;30451;48.638;10.624;2023-05-07T08:06:25;1.10;;;0.70;;
44722;SDS011;30451;48.638;10.624;2023-05-07T08:08:51;0.85;;;0.65;;
44722;SDS011;30451;48.638;10.624;2023-05-07T08:11:17;1.35;;;0.80;;
44722;SDS011;30451;48.638;10.624;2023-05-07T08:13:42;0.70;;;0.70;;
44722;SDS011;30451;48.638;10.624;2023-05-07T08:16:08;1.27;;;0.70;;
44722;SDS011;30451;48.638;10.624;2023-05-07T08:18:34;1.10;;;0.80;;
44722;SDS011;30451;48.638;10.624;2023-05-07T08:21:00;1.17;;;0.80;;
44722;SDS011;30451;48.638;10.624;2023-05-07T08:23:26;1.85;;;0.80;;
44722;SDS011;30451;48.638;10.624;2023-05-07T08:25:51;1.45;;;0.80;;
44722;SDS011;30451;48.638;10.624;2023-05-07T08:28:17;0.88;;;0.63;;
44722;SDS011;30451;48.638;10.624;2023-05-07T08:30:44;0.77;;;0.65;;
44722;SDS011;30451;48.638;10.624;2023-05-07T08:33:09;0.73;;;0.70;;
44722;SDS011;30451;48.638;10.624;2023-05-07T08:35:35;0.93;;;0.75;;
44722;SDS011;30451;48.638;10.624;2023-05-07T08:38:01;0.80;;;0.70;;
44722;SDS011;30451;48.638;10.624;2023-05-07T08:40:29;1.10;;;0.80;;
44722;SDS011;30451;48.638;10.624;2023-05-07T08:43:03;0.85;;;0.80;;
44722;SDS011;30451;48.638;10.624;2023-05-07T08:45:31;1.58;;;0.90;;
44722;SDS011;30451;48.638;10.624;2023-05-07T08:47:58;0.75;;;0.73;;
44722;SDS011;30451;48.638;10.624;2023-05-07T08:50:27;0.70;;;0.70;;
44722;SDS011;30451;48.638;10.624;2023-05-07T08:52:53;0.73;;;0.70;;
44722;SDS011;30451;48.638;10.624;2023-05-07T08:55:18;1.23;;;1.00;;
44722;SDS011;30451;48.638;10.624;2023-05-07T08:57:45;1.27;;;0.90;;
44722;SDS011;30451;48.638;10.624;2023-05-07T09:00:12;1.30;;;0.90;;
44722;SDS011;30451;48.638;10.624;2023-05-07T09:02:38;1.30;;;0.80;;
44722;SDS011;30451;48.638;10.624;2023-05-07T09:05:03;1.02;;;0.80;;
44722;SDS011;30451;48.638;10.624;2023-05-07T09:07:30;0.80;;;0.70;;
44722;SDS011;30451;48.638;10.624;2023-05-07T09:09:55;0.93;;;0.75;;
44722;SDS011;30451;48.638;10.624;2023-05-07T09:12:22;0.95;;;0.85;;
44722;SDS011;30451;48.638;10.624;2023-05-07T09:14:47;1.42;;;0.88;;
44722;SDS011;30451;48.638;10.624;2023-05-07T09:17:15;1.45;;;0.90;;
44722;SDS011;30451;48.638;10.624;2023-05-07T09:19:41;1.25;;;1.05;;
44722;SDS011;30451;48.638;10.624;2023-05-07T09:22:12;1.23;;;0.90;;
44722;SDS011;30451;48.638;10.624;2023-05-07T09:24:38;1.40;;;0.80;;
44722;SDS011;30451;48.638;10.624;2023-05-07T09:27:04;0.85;;;0.77;;
44722;SDS011;30451;48.638;10.624;2023-05-07T09:29:30;1.15;;;0.90;;
44722;SDS011;30451;48.638;10.624;2023-05-07T09:32:03;1.13;;;0.90;;
44722;SDS011;30451;48.638;10.624;2023-05-07T09:34:30;1.40;;;1.00;;
44722;SDS011;30451;48.638;10.624;2023-05-07T09:36:56;0.73;;;0.70;;
44722;SDS011;30451;48.638;10.624;2023-05-07T09:39:26;1.42;;;0.90;;
44722;SDS011;30451;48.638;10.624;2023-05-07T09:42:03;1.20;;;0.93;;
44722;SDS011;30451;48.638;10.624;2023-05-07T09:44:29;1.65;;;1.10;;
44722;SDS011;30451;48.638;10.624;2023-05-07T09:46:57;1.30;;;0.98;;
44722;SDS011;30451;48.638;10.624;2023-05-07T09:49:26;1.07;;;0.90;;
44722;SDS011;30451;48.638;10.624;2023-05-07T09:51:55;0.93;;;0.88;;
44722;SDS011;30451;48.638;10.624;2023-05-07T09:54:22;1.35;;;0.95;;
44722;SDS011;30451;48.638;10.624;2023-05-07T09:56:50;1.63;;;1.00;;
44722;SDS011;30451;48.638;10.624;2023-05-07T09:59:17;1.25;;;0.80;;
44722;SDS011;30451;48.638;10.624;2023-05-07T10:01:45;1.30;;;0.90;;
44722;SDS011;30451;48.638;10.624;2023-05-07T10:04:11;1.33;;;1.00;;
44722;SDS011;30451;48.638;10.624;2023-05-07T10:06:37;1.20;;;0.90;;
44722;SDS011;30451;48.638;10.624;2023-05-07T10:09:03;1.58;;;1.00;;
44722;SDS011;30451;48.638;10.624;2023-05-07T10:11:36;1.33;;;1.05;;
44722;SDS011;30451;48.638;10.624;2023-05-07T10:14:02;1.60;;;1.00;;
44722;SDS011;30451;48.638;10.624;2023-05-07T10:16:31;1.08;;;0.90;;
44722;SDS011;30451;48.638;10.624;2023-05-07T10:19:01;1.52;;;1.00;;
44722;SDS011;30451;48.638;10.624;2023-05-07T10:21:28;2.17;;;1.00;;
44722;SDS011;30451;48.638;10.624;2023-05-07T10:23:58;1.13;;;1.03;;
44722;SDS011;30451;48.638;10.624;2023-05-07T10:26:42;1.50;;;1.10;;
44722;SDS011;30451;48.638;10.624;2023-05-07T10:31:58;1.08;;;0.90;;
44722;SDS011;30451;48.638;10.624;2023-05-07T10:34:29;1.63;;;1.05;;
44722;SDS011;30451;48.638;10.624;2023-05-07T10:37:00;1.33;;;0.90;;
44722;SDS011;30451;48.638;10.624;2023-05-07T10:39:26;1.10;;;0.90;;
44722;SDS011;30451;48.638;10.624;2023-05-07T10:41:52;1.27;;;1.00;;
44722;SDS011;30451;48.638;10.624;2023-05-07T10:44:30;1.05;;;0.90;;
44722;SDS011;30451;48.638;10.624;2023-05-07T10:47:12;1.20;;;0.90;;
44722;SDS011;30451;48.638;10.624;2023-05-07T10:52:18;1.40;;;0.93;;
44722;SDS011;30451;48.638;10.624;2023-05-07T10:54:46;1.20;;;0.90;;
44722;SDS011;30451;48.638;10.624;2023-05-07T11:00:01;1.30;;;0.90;;
44722;SDS011;30451;48.638;10.624;2023-05-07T11:05:29;1.13;;;0.80;;
44722;SDS011;30451;48.638;10.624;2023-05-07T11:08:02;1.48;;;0.98;;
44722;SDS011;30451;48.638;10.624;2023-05-07T11:13:13;1.42;;;0.85;;
44722;SDS011;30451;48.638;10.624;2023-05-07T11:15:46;1.63;;;1.00;;
44722;SDS011;30451;48.638;10.624;2023-05-07T11:18:15;1.38;;;0.88;;
44722;SDS011;30451;48.638;10.624;2023-05-07T11:23:54;1.80;;;0.95;;
44722;SDS011;30451;48.638;10.624;2023-05-07T11:26:14;1.33;;;0.90;;
44722;SDS011;30451;48.638;10.624;2023-05-07T11:28:41;0.82;;;0.80;;
44722;SDS011;30451;48.638;10.624;2023-05-07T11:31:08;1.70;;;0.82;;
44722;SDS011;30451;48.638;10.624;2023-05-07T11:33:34;1.23;;;0.90;;
44722;SDS011;30451;48.638;10.624;2023-05-07T11:36:04;1.45;;;0.70;;
44722;SDS011;30451;48.638;10.624;2023-05-07T11:38:30;1.15;;;0.93;;
44722;SDS011;30451;48.638;10.624;2023-05-07T11:41:00;0.90;;;0.80;;
44722;SDS011;30451;48.638;10.624;2023-05-07T11:43:26;1.13;;;0.80;;
44722;SDS011;30451;48.638;10.624;2023-05-07T11:45:52;1.50;;;1.00;;
44722;SDS011;30451;48.638;10.624;2023-05-07T11:48:18;0.85;;;0.80;;
44722;SDS011;30451;48.638;10.624;2023-05-07T11:50:53;1.15;;;0.82;;
44722;SDS011;30451;48.638;10.624;2023-05-07T11:53:27;1.23;;;0.90;;
44722;SDS011;30451;48.638;10.624;2023-05-07T11:56:00;1.42;;;0.90;;
44722;SDS011;30451;48.638;10.624;2023-05-07T11:58:30;1.00;;;0.80;;
44722;SDS011;30451;48.638;10.624;2023-05-07T12:00:56;1.58;;;0.80;;
44722;SDS011;30451;48.638;10.624;2023-05-07T12:03:22;2.80;;;0.90;;
44722;SDS011;30451;48.638;10.624;2023-05-07T12:05:47;1.13;;;0.90;;
44722;SDS011;30451;48.638;10.624;2023-05-07T12:08:17;1.00;;;0.82;;
44722;SDS011;30451;48.638;10.624;2023-05-07T12:10:44;1.50;;;0.82;;
44722;SDS011;30451;48.638;10.624;2023-05-07T12:13:22;1.13;;;0.80;;
44722;SDS011;30451;48.638;10.624;2023-05-07T12:15:50;1.42;;;0.70;;
44722;SDS011;30451;48.638;10.624;2023-05-07T12:18:17;1.00;;;0.77;;
44722;SDS011;30451;48.638;10.624;2023-05-07T12:20:43;0.88;;;0.70;;
44722;SDS011;30451;48.638;10.624;2023-05-07T12:23:10;1.80;;;0.80;;
44722;SDS011;30451;48.638;10.624;2023-05-07T12:25:36;1.42;;;0.90;;
44722;SDS011;30451;48.638;10.624;2023-05-07T12:28:03;0.88;;;0.70;;
44722;SDS011;30451;48.638;10.624;2023-05-07T12:30:30;1.20;;;0.80;;
44722;SDS011;30451;48.638;10.624;2023-05-07T12:33:03;3.05;;;1.10;;
44722;SDS011;30451;48.638;10.624;2023-05-07T12:35:29;0.90;;;0.80;;
44722;SDS011;30451;48.638;10.624;2023-05-07T12:38:08;1.23;;;0.93;;
44722;SDS011;30451;48.638;10.624;2023-05-07T12:40:48;0.88;;;0.80;;
44722;SDS011;30451;48.638;10.624;2023-05-07T12:43:24;1.45;;;0.95;;
44722;SDS011;30451;48.638;10.624;2023-05-07T12:45:51;2.35;;;0.80;;
44722;SDS011;30451;48.638;10.624;2023-05-07T12:48:19;1.40;;;1.00;;
44722;SDS011;30451;48.638;10.624;2023-05-07T12:51:04;1.30;;;0.90;;
44722;SDS011;30451;48.638;10.624;2023-05-07T12:53:32;1.58;;;0.95;;
44722;SDS011;30451;48.638;10.624;2023-05-07T12:55:58;1.65;;;0.98;;
44722;SDS011;30451;48.638;10.624;2023-05-07T12:58:32;1.42;;;0.90;;
44722;SDS011;30451;48.638;10.624;2023-05-07T13:01:00;1.50;;;0.90;;
44722;SDS011;30451;48.638;10.624;2023-05-07T13:03:33;1.05;;;0.90;;
44722;SDS011;30451;48.638;10.624;2023-05-07T13:06:01;1.17;;;0.98;;
44722;SDS011;30451;48.638;10.624;2023-05-07T13:08:31;1.50;;;1.00;;
44722;SDS011;30451;48.638;10.624;2023-05-07T13:11:02;1.42;;;1.00;;
44722;SDS011;30451;48.638;10.624;2023-05-07T13:13:29;1.05;;;0.90;;
44722;SDS011;30451;48.638;10.624;2023-05-07T13:15:55;1.92;;;0.95;;
44722;SDS011;30451;48.638;10.624;2023-05-07T13:18:21;1.60;;;1.00;;
44722;SDS011;30451;48.638;10.624;2023-05-07T13:20:47;1.50;;;1.00;;
44722;SDS011;30451;48.638;10.624;2023-05-07T13:23:12;1.27;;;1.00;;
44722;SDS011;30451;48.638;10.624;2023-05-07T13:25:38;1.15;;;0.90;;
44722;SDS011;30451;48.638;10.624;2023-05-07T13:28:04;1.42;;;1.10;;
44722;SDS011;30451;48.638;10.624;2023-05-07T13:30:29;1.58;;;1.02;;
44722;SDS011;30451;48.638;10.624;2023-05-07T13:32:55;1.13;;;1.00;;
44722;SDS011;30451;48.638;10.624;2023-05-07T13:35:21;1.70;;;1.00;;
44722;SDS011;30451;48.638;10.624;2023-05-07T13:37:47;1.38;;;1.00;;
44722;SDS011;30451;48.638;10.624;2023-05-07T13:40:14;1.67;;;1.00;;
44722;SDS011;30451;48.638;10.624;2023-05-07T13:42:40;1.98;;;1.20;;
44722;SDS011;30451;48.638;10.624;2023-05-07T13:45:06;2.17;;;1.10;;
44722;SDS011;30451;48.638;10.624;2023-05-07T13:47:32;1.08;;;0.90;;
44722;SDS011;30451;48.638;10.624;2023-05-07T13:49:58;1.55;;;1.02;;
44722;SDS011;30451;48.638;10.624;2023-05-07T13:52:23;1.50;;;1.10;;
44722;SDS011;30451;48.638;10.624;2023-05-07T13:54:49;1.52;;;1.00;;
44722;SDS011;30451;48.638;10.624;2023-05-07T13:57:17;1.20;;;0.90;;
44722;SDS011;30451;48.638;10.624;2023-05-07T13:59:43;1.73;;;1.17;;
44722;SDS011;30451;48.638;10.624;2023-05-07T14:02:08;1.50;;;1.00;;
44722;SDS011;30451;48.638;10.624;2023-05-07T14:04:34;2.00;;;1.13;;
44722;SDS011;30451;48.638;10.624;2023-05-07T14:07:00;1.70;;;1.10;;
44722;SDS011;30451;48.638;10.624;2023-05-07T14:09:25;1.90;;;1.20;;
44722;SDS011;30451;48.638;10.624;2023-05-07T14:11:51;1.90;;;1.20;;
44722;SDS011;30451;48.638;10.624;2023-05-07T14:14:17;2.28;;;1.30;;
44722;SDS011;30451;48.638;10.624;2023-05-07T14:16:43;1.20;;;1.00;;
44722;SDS011;30451;48.638;10.624;2023-05-07T14:19:10;2.05;;;1.13;;
44722;SDS011;30451;48.638;10.624;2023-05-07T14:21:36;1.10;;;0.90;;
44722;SDS011;30451;48.638;10.624;2023-05-07T14:24:02;1.38;;;1.08;;
44722;SDS011;30451;48.638;10.624;2023-05-07T14:26:28;1.23;;;1.10;;
44722;SDS011;30451;48.638;10.624;2023-05-07T14:28:54;1.63;;;1.05;;
44722;SDS011;30451;48.638;10.624;2023-05-07T14:31:22;2.05;;;1.27;;
44722;SDS011;30451;48.638;10.624;2023-05-07T14:33:47;2.42;;;1.20;;
44722;SDS011;30451;48.638;10.624;2023-05-07T14:36:14;1.48;;;1.10;;
44722;SDS011;30451;48.638;10.624;2023-05-07T14:38:40;1.08;;;0.98;;
44722;SDS011;30451;48.638;10.624;2023-05-07T14:41:06;1.98;;;1.17;;
44722;SDS011;30451;48.638;10.624;2023-05-07T14:43:31;1.90;;;1.10;;
44722;SDS011;30451;48.638;10.624;2023-05-07T14:45:57;1.63;;;0.95;;
44722;SDS011;30451;48.638;10.624;2023-05-07T14:48:22;1.92;;;1.20;;